My.unforgettable — ZCIZ4 — position and weather

sailwx.info

Track history (hours):
 
Tides and Currents Weather Stations Pressure Air Temp Water Temp Dewpoint Dewpoint Depression Visibility Wind Speed Wind Dir Waves Ship Positions

My.unforgettable

Last reported at 2017-Aug-11 20:34 UTC. Time now 2017-Aug-21 17:28 UTC.
Position N 26°12' W 079°27'.
Warning: this ship's position is 9 days out of date.

Length 42 m; draft 1.9 m.

Type: Pleasure craft. MMSI: 319823000.

Date/timePositionNaut miles runAvg speedWind from/ knotsBaromVisibWave heightAir tempDewpointWater temp
2017-Aug-11 20:34N 26°12' W 079°27'1 7.2
2017-Aug-11 20:24N 26°13' W 079°28'3 7.0
2017-Aug-11 19:59N 26°13' W 079°32'3 7.2
2017-Aug-11 19:30N 26°14' W 079°36'4 8.0
2017-Aug-11 18:59N 26°13' W 079°40'4 8.5
2017-Aug-11 18:30N 26°12' W 079°44'4 8.6
2017-Aug-11 18:00N 26°10' W 079°49'4 8.6
2017-Aug-11 17:30N 26°09' W 079°54'4 8.9
2017-Aug-11 17:00N 26°08' W 079°58'4 8.8
2017-Aug-11 16:30N 26°06' W 080°03'4 7.6
2017-Aug-11 16:00N 26°06' W 080°07'0 0.6
2017-Aug-11 15:30N 26°06' W 080°07'0 0.0
2017-Aug-11 15:00N 26°06' W 080°07'0 0.0
2017-Aug-11 14:30N 26°06' W 080°07'0 0.0
2017-Aug-11 13:30N 26°06' W 080°07'0 0.0
2017-Aug-11 13:00N 26°06' W 080°07'0 0.0
2017-Aug-11 12:30N 26°06' W 080°07'0 0.0
2017-Aug-11 12:00N 26°06' W 080°07'0 0.0
2017-Aug-11 11:30N 26°06' W 080°07'0 0.0
2017-Aug-11 11:00N 26°06' W 080°07'0 0.0
2017-Aug-11 10:30N 26°06' W 080°07'0 0.0
2017-Aug-11 10:00N 26°06' W 080°07'0 0.0
2017-Aug-11 09:30N 26°06' W 080°07'0 0.0
2017-Aug-11 09:00N 26°06' W 080°07'0 0.0
2017-Aug-11 08:30N 26°06' W 080°07'0 0.0
2017-Aug-11 08:00N 26°06' W 080°07'0 0.0
2017-Aug-11 07:30N 26°06' W 080°07'0 0.0
2017-Aug-11 07:00N 26°06' W 080°07'0 0.0
2017-Aug-11 06:30N 26°06' W 080°07'0 0.0
2017-Aug-11 06:00N 26°06' W 080°07'0 0.0
2017-Aug-11 05:30N 26°06' W 080°07'0 0.0
2017-Aug-11 05:00N 26°06' W 080°07'0 0.0
2017-Aug-11 04:30N 26°06' W 080°07'0 0.0
2017-Aug-11 04:00N 26°06' W 080°07'0 0.0
2017-Aug-11 03:30N 26°06' W 080°07'0 0.0
2017-Aug-11 03:00N 26°06' W 080°07'0 0.0
2017-Aug-11 02:30N 26°06' W 080°07'0 0.0
2017-Aug-11 02:00N 26°06' W 080°07'0 0.0
2017-Aug-11 01:30N 26°06' W 080°07'0 0.0
2017-Aug-11 01:00N 26°06' W 080°07'0 0.0
2017-Aug-11 00:30N 26°06' W 080°07'0 0.0
2017-Aug-11 00:00N 26°06' W 080°07'0 0.0
2017-Aug-10 23:30N 26°06' W 080°07'0 0.0
2017-Aug-10 23:00N 26°06' W 080°07'0 0.0
2017-Aug-10 22:30N 26°06' W 080°07'0 0.0
2017-Aug-10 22:00N 26°06' W 080°07'0 0.0
2017-Aug-10 21:30N 26°06' W 080°07'0 0.0
2017-Aug-10 21:00N 26°06' W 080°07'0 0.0
2017-Aug-10 20:30N 26°06' W 080°07'0 0.0
2017-Aug-10 20:00N 26°06' W 080°07'0 0.0
2017-Aug-10 19:30N 26°06' W 080°07'0 0.0
2017-Aug-10 19:00N 26°06' W 080°07'0 0.4
2017-Aug-10 18:30N 26°06' W 080°07'2 3.6
2017-Aug-10 18:01N 26°05' W 080°05'2 3.8
2017-Aug-10 17:30N 26°06' W 080°07'2 3.7
2017-Aug-10 17:00N 26°07' W 080°09'2 3.2
2017-Aug-10 16:30N 26°06' W 080°10'1 1.3
2017-Aug-10 15:59N 26°05' W 080°10'0 0.0
2017-Aug-10 15:29N 26°05' W 080°10'0 0.0
2017-Aug-10 14:59N 26°05' W 080°10'0 0.0
2017-Aug-10 14:29N 26°05' W 080°10'0 0.0
2017-Aug-10 13:59N 26°05' W 080°10'0 0.0
2017-Aug-10 13:29N 26°05' W 080°10'0 0.0
2017-Aug-10 12:59N 26°05' W 080°10'0 0.0
2017-Aug-10 12:29N 26°05' W 080°10'0 0.0
2017-Aug-10 11:59N 26°05' W 080°10'0 0.0
2017-Aug-10 11:29N 26°05' W 080°10'0 0.0
2017-Aug-10 10:59N 26°05' W 080°10'0 0.0
2017-Aug-10 10:29N 26°05' W 080°10'0 0.0
2017-Aug-10 09:59N 26°05' W 080°10'0 0.0
2017-Aug-10 09:29N 26°05' W 080°10'0 0.0
2017-Aug-10 08:59N 26°05' W 080°10'0 0.0
2017-Aug-10 08:29N 26°05' W 080°10'0 0.0
2017-Aug-10 07:59N 26°05' W 080°10'0 0.0
2017-Aug-10 07:29N 26°05' W 080°10'0 0.0
2017-Aug-10 06:59N 26°05' W 080°10'0 0.0
2017-Aug-10 06:29N 26°05' W 080°10'0 0.0
2017-Aug-10 05:59N 26°05' W 080°10'0 0.0
2017-Aug-10 05:29N 26°05' W 080°10'0 0.0
2017-Aug-10 04:59N 26°05' W 080°10'0 0.0
2017-Aug-10 04:29N 26°05' W 080°10'0 0.0
2017-Aug-10 03:59N 26°05' W 080°10'0 0.0
2017-Aug-10 03:29N 26°05' W 080°10'0 0.0
2017-Aug-10 02:59N 26°05' W 080°10'0 0.0
2017-Aug-10 02:29N 26°05' W 080°10'0 0.0
2017-Aug-10 01:59N 26°05' W 080°10'0 0.0
2017-Aug-10 01:29N 26°05' W 080°10'0 0.0
2017-Aug-10 00:59N 26°05' W 080°10'0 0.0
2017-Aug-10 00:29N 26°05' W 080°10'0 0.0
2017-Aug-09 23:59N 26°05' W 080°10'0 0.0
2017-Aug-09 23:29N 26°05' W 080°10'0 0.0
2017-Aug-09 22:59N 26°05' W 080°10'0 0.0
2017-Aug-09 22:29N 26°05' W 080°10'0 0.0
2017-Aug-09 21:59N 26°05' W 080°10'0 0.0
2017-Aug-09 21:29N 26°05' W 080°10'0 0.0
2017-Aug-09 20:59N 26°05' W 080°10'0 0.0
2017-Aug-09 20:29N 26°05' W 080°10'0 0.0
2017-Aug-09 19:59N 26°05' W 080°10'0 0.0
2017-Aug-09 19:29N 26°05' W 080°10'0 0.0
2017-Aug-09 18:59N 26°05' W 080°10'0 0.0
2017-Aug-09 18:29N 26°05' W 080°10'0 0.0
2017-Aug-09 17:59N 26°05' W 080°10'0 0.0
2017-Aug-09 17:29N 26°05' W 080°10'0 0.0
2017-Aug-09 16:59N 26°05' W 080°10'0 0.0
2017-Aug-09 16:29N 26°05' W 080°10'0 0.0
2017-Aug-09 15:59N 26°05' W 080°10'0 0.0
2017-Aug-09 15:29N 26°05' W 080°10'0 0.0
2017-Aug-09 14:59N 26°05' W 080°10'0 0.0
2017-Aug-09 14:29N 26°05' W 080°10'0 0.0
2017-Aug-09 13:59N 26°05' W 080°10'0 0.0
2017-Aug-09 13:29N 26°05' W 080°10'0 0.0
2017-Aug-09 12:59N 26°05' W 080°10'0 0.0
2017-Aug-09 12:28N 26°05' W 080°10'0 0.0
2017-Aug-09 11:58N 26°05' W 080°10'0 0.0
2017-Aug-09 11:28N 26°05' W 080°10'0 0.0
2017-Aug-09 10:59N 26°05' W 080°10'0 0.0
2017-Aug-09 10:28N 26°05' W 080°10'0 0.0
2017-Aug-09 09:58N 26°05' W 080°10'0 0.0
2017-Aug-09 09:28N 26°05' W 080°10'0 0.0
2017-Aug-09 08:58N 26°05' W 080°10'0 0.0
2017-Aug-09 08:28N 26°05' W 080°10'0 0.0
2017-Aug-09 07:58N 26°05' W 080°10'0 0.0
2017-Aug-09 07:28N 26°05' W 080°10'0 0.0
2017-Aug-09 06:58N 26°05' W 080°10'0 0.0
2017-Aug-09 06:28N 26°05' W 080°10'0 0.0
2017-Aug-09 05:58N 26°05' W 080°10'0 0.0
2017-Aug-09 05:28N 26°05' W 080°10'0 0.0
2017-Aug-09 04:58N 26°05' W 080°10'0 0.0
2017-Aug-09 04:28N 26°05' W 080°10'0 0.0
2017-Aug-09 03:58N 26°05' W 080°10'0 0.0
2017-Aug-09 03:28N 26°05' W 080°10'0 0.0
2017-Aug-09 02:58N 26°05' W 080°10'0 0.0
2017-Aug-09 02:28N 26°05' W 080°10'0 0.0
2017-Aug-09 01:58N 26°05' W 080°10'0 0.0
2017-Aug-09 01:28N 26°05' W 080°10'0 0.0
2017-Aug-09 00:58N 26°05' W 080°10'0 0.0
2017-Aug-09 00:28N 26°05' W 080°10'0 0.0
2017-Aug-08 23:58N 26°05' W 080°10'0 0.0
2017-Aug-08 23:28N 26°05' W 080°10'0 0.0
2017-Aug-08 22:58N 26°05' W 080°10'0 0.0
2017-Aug-08 22:28N 26°05' W 080°10'0 0.0
2017-Aug-08 21:58N 26°05' W 080°10'0 0.0
2017-Aug-08 21:28N 26°05' W 080°10'0 0.0
2017-Aug-08 20:58N 26°05' W 080°10'0 0.0
2017-Aug-08 20:28N 26°05' W 080°10'0 0.0
2017-Aug-08 19:58N 26°05' W 080°10'0 0.0
2017-Aug-08 19:28N 26°05' W 080°10'0 0.0
2017-Aug-08 18:55N 26°05' W 080°10'0 0.0
2017-Aug-08 18:25N 26°05' W 080°10'0 0.0
2017-Aug-08 17:58N 26°05' W 080°10'0 0.0
2017-Aug-08 17:28N 26°05' W 080°10'0 0.0
2017-Aug-08 16:58N 26°05' W 080°10'0 0.0
2017-Aug-08 16:28N 26°05' W 080°10'0 0.0
2017-Aug-08 15:55N 26°05' W 080°10'0 0.0
2017-Aug-08 15:28N 26°05' W 080°10'0 0.0
2017-Aug-08 14:58N 26°05' W 080°10'0 0.0
2017-Aug-08 14:28N 26°05' W 080°10'0 0.0
2017-Aug-08 13:58N 26°05' W 080°10'0 0.0
2017-Aug-08 13:28N 26°05' W 080°10'0 0.0
2017-Aug-08 12:58N 26°05' W 080°10'0 0.0
2017-Aug-08 12:28N 26°05' W 080°10'0 0.0
2017-Aug-08 11:58N 26°05' W 080°10'0 0.0
2017-Aug-08 11:28N 26°05' W 080°10'0 0.0
2017-Aug-08 10:58N 26°05' W 080°10'0 0.0
2017-Aug-08 10:28N 26°05' W 080°10'0 0.0
2017-Aug-08 09:58N 26°05' W 080°10'0 0.0
2017-Aug-08 09:28N 26°05' W 080°10'0 0.0
2017-Aug-08 08:58N 26°05' W 080°10'0 0.0
2017-Aug-08 08:28N 26°05' W 080°10'0 0.0
2017-Aug-08 07:58N 26°05' W 080°10'0 0.0
2017-Aug-08 07:28N 26°05' W 080°10'0 0.0
2017-Aug-08 06:58N 26°05' W 080°10'0 0.0
2017-Aug-08 06:28N 26°05' W 080°10'0 0.0
2017-Aug-08 05:58N 26°05' W 080°10'0 0.0
2017-Aug-08 05:28N 26°05' W 080°10'0 0.0
2017-Aug-08 04:58N 26°05' W 080°10'0 0.0
2017-Aug-08 04:28N 26°05' W 080°10'0 0.0
2017-Aug-08 03:58N 26°05' W 080°10'0 0.0
2017-Aug-08 03:28N 26°05' W 080°10'0 0.0
2017-Aug-08 02:58N 26°05' W 080°10'0 0.0
2017-Aug-08 02:28N 26°05' W 080°10'0 0.0
2017-Aug-08 01:58N 26°05' W 080°10'0 0.0
2017-Aug-08 01:25N 26°05' W 080°10'0 0.0
2017-Aug-08 00:57N 26°05' W 080°10'0 0.0
2017-Aug-08 00:27N 26°05' W 080°10'0 0.0
2017-Aug-07 23:57N 26°05' W 080°10'0 0.0
2017-Aug-07 23:27N 26°05' W 080°10'0 0.0
2017-Aug-07 22:57N 26°05' W 080°10'0 0.0
2017-Aug-07 22:27N 26°05' W 080°10'0 0.0
2017-Aug-07 21:57N 26°05' W 080°10'0 0.0
2017-Aug-07 21:27N 26°05' W 080°10'0 0.0
2017-Aug-07 20:57N 26°05' W 080°10'0 0.0
2017-Aug-07 20:27N 26°05' W 080°10'0 0.0
2017-Aug-07 19:57N 26°05' W 080°10'0 0.0
2017-Aug-07 19:27N 26°05' W 080°10'0 0.0
2017-Aug-07 19:01N 26°05' W 080°10'0 0.0
2017-Aug-07 18:30N 26°05' W 080°10'0 0.0
2017-Aug-07 17:57N 26°05' W 080°10'0 0.0
2017-Aug-07 17:31N 26°05' W 080°10'0 0.0
2017-Aug-07 17:00N 26°05' W 080°10'0 0.0
2017-Aug-07 16:30N 26°05' W 080°10'0 0.0
2017-Aug-07 16:00N 26°05' W 080°10'0 0.0
2017-Aug-07 15:30N 26°05' W 080°10'0 0.0
2017-Aug-07 15:00N 26°05' W 080°10'0 0.0
2017-Aug-07 14:30N 26°05' W 080°10'0 0.0
2017-Aug-07 14:00N 26°05' W 080°10'0 0.0
2017-Aug-07 13:27N 26°05' W 080°10'0 0.0
2017-Aug-07 13:00N 26°05' W 080°10'0 0.0
2017-Aug-07 12:30N 26°05' W 080°10'0 0.0
2017-Aug-07 12:00N 26°05' W 080°10'0 0.0
2017-Aug-07 11:30N 26°05' W 080°10'0 0.0
2017-Aug-07 11:00N 26°05' W 080°10'0 0.0
2017-Aug-07 10:30N 26°05' W 080°10'0 0.0
2017-Aug-07 10:00N 26°05' W 080°10'0 0.0
2017-Aug-07 09:30N 26°05' W 080°10'0 0.0
2017-Aug-07 09:00N 26°05' W 080°10'0 0.0
2017-Aug-07 08:30N 26°05' W 080°10'0 0.0
2017-Aug-07 08:00N 26°05' W 080°10'0 0.0
2017-Aug-07 07:30N 26°05' W 080°10'0 0.0
2017-Aug-07 07:00N 26°05' W 080°10'0 0.0
2017-Aug-07 06:30N 26°05' W 080°10'0 0.0
2017-Aug-07 06:00N 26°05' W 080°10'0 0.0
2017-Aug-07 05:30N 26°05' W 080°10'0 0.0
2017-Aug-07 05:00N 26°05' W 080°10'0 0.0
2017-Aug-07 04:30N 26°05' W 080°10'0 0.0
2017-Aug-07 04:00N 26°05' W 080°10'0 0.0
2017-Aug-07 03:30N 26°05' W 080°10'0 0.0
2017-Aug-07 03:00N 26°05' W 080°10'0 0.0
2017-Aug-07 02:30N 26°05' W 080°10'0 0.0
2017-Aug-07 02:00N 26°05' W 080°10'0 0.0
2017-Aug-07 01:30N 26°05' W 080°10'0 0.0
2017-Aug-07 01:00N 26°05' W 080°10'0 0.0
2017-Aug-07 00:27N 26°05' W 080°10'0 0.0
2017-Aug-06 23:57N 26°05' W 080°10'0 0.0
2017-Aug-06 23:30N 26°05' W 080°10'0 0.0
2017-Aug-06 23:00N 26°05' W 080°10'0 0.0
2017-Aug-06 22:30N 26°05' W 080°10'0 0.0
2017-Aug-06 22:00N 26°05' W 080°10'0 0.0
2017-Aug-06 21:30N 26°05' W 080°10'0 0.0
2017-Aug-06 21:00N 26°05' W 080°10'0 0.0
2017-Aug-06 20:30N 26°05' W 080°10'0 0.0
2017-Aug-06 20:00N 26°05' W 080°10'0 0.0
2017-Aug-06 19:30N 26°05' W 080°10'0 0.0
2017-Aug-06 19:00N 26°05' W 080°10'0 0.0
2017-Aug-06 18:27N 26°05' W 080°10'0 0.0
2017-Aug-06 18:00N 26°05' W 080°10'0 0.0
2017-Aug-06 17:30N 26°05' W 080°10'0 0.0
2017-Aug-06 17:00N 26°05' W 080°10'0 0.0
2017-Aug-06 16:30N 26°05' W 080°10'0 0.0
2017-Aug-06 16:00N 26°05' W 080°10'0 0.0
2017-Aug-06 15:30N 26°05' W 080°10'0 0.0
2017-Aug-06 15:00N 26°05' W 080°10'0 0.0
2017-Aug-06 14:30N 26°05' W 080°10'0 0.0
2017-Aug-06 14:00N 26°05' W 080°10'0 0.0
2017-Aug-06 13:30N 26°05' W 080°10'0 0.0
2017-Aug-06 13:00N 26°05' W 080°10'0 0.0
2017-Aug-06 12:26N 26°05' W 080°10'0 0.0
2017-Aug-06 12:00N 26°05' W 080°10'0 0.0
2017-Aug-06 11:30N 26°05' W 080°10'0 0.0
2017-Aug-06 10:59N 26°05' W 080°10'0 0.0
2017-Aug-06 10:30N 26°05' W 080°10'0 0.0
2017-Aug-06 09:59N 26°05' W 080°10'0 0.0
2017-Aug-06 09:29N 26°05' W 080°10'0 0.0
2017-Aug-06 08:59N 26°05' W 080°10'0 0.0
2017-Aug-06 08:29N 26°05' W 080°10'0 0.0
2017-Aug-06 07:59N 26°05' W 080°10'0 0.0
2017-Aug-06 07:29N 26°05' W 080°10'0 0.0
2017-Aug-06 06:59N 26°05' W 080°10'0 0.0
2017-Aug-06 06:29N 26°05' W 080°10'0 0.0
2017-Aug-06 05:59N 26°05' W 080°10'0 0.0
2017-Aug-06 05:29N 26°05' W 080°10'0 0.0
2017-Aug-06 04:59N 26°05' W 080°10'0 0.0
2017-Aug-06 04:29N 26°05' W 080°10'0 0.0
2017-Aug-06 03:59N 26°05' W 080°10'0 0.0
2017-Aug-06 03:26N 26°05' W 080°10'0 0.0
2017-Aug-06 02:59N 26°05' W 080°10'0 0.0
2017-Aug-06 02:29N 26°05' W 080°10'0 0.0
2017-Aug-06 01:56N 26°05' W 080°10'0 0.0
2017-Aug-06 01:29N 26°05' W 080°10'0 0.0
2017-Aug-06 00:59N 26°05' W 080°10'0 0.0
2017-Aug-06 00:29N 26°05' W 080°10'0 0.0
2017-Aug-05 23:59N 26°05' W 080°10'0 0.0
2017-Aug-05 23:29N 26°05' W 080°10'0 0.0
2017-Aug-05 22:59N 26°05' W 080°10'0 0.0
2017-Aug-05 22:29N 26°05' W 080°10'0 0.0
2017-Aug-05 21:59N 26°05' W 080°10'0 0.0
2017-Aug-05 21:29N 26°05' W 080°10'0 0.0
2017-Aug-05 20:59N 26°05' W 080°10'0 0.0
2017-Aug-05 20:29N 26°05' W 080°10'0 0.0
2017-Aug-05 19:59N 26°05' W 080°10'0 0.0
2017-Aug-05 19:29N 26°05' W 080°10'0 0.0
2017-Aug-05 18:59N 26°05' W 080°10'0 0.0
2017-Aug-05 18:29N 26°05' W 080°10'0 0.0
2017-Aug-05 17:59N 26°05' W 080°10'0 0.0
2017-Aug-05 17:23N 26°05' W 080°10'0 0.0
2017-Aug-05 16:59N 26°05' W 080°10'0 0.0
2017-Aug-05 16:29N 26°05' W 080°10'0 0.0
2017-Aug-05 15:59N 26°05' W 080°10'0 0.0
2017-Aug-05 15:29N 26°05' W 080°10'0 0.0
2017-Aug-05 14:59N 26°05' W 080°10'0 0.0
2017-Aug-05 14:29N 26°05' W 080°10'0 0.0
2017-Aug-05 13:59N 26°05' W 080°10'0 0.0
2017-Aug-05 13:29N 26°05' W 080°10'0 0.0
2017-Aug-05 12:59N 26°05' W 080°10'0 0.0
2017-Aug-05 12:29N 26°05' W 080°10'0 0.0
2017-Aug-05 11:59N 26°05' W 080°10'0 0.0
2017-Aug-05 11:29N 26°05' W 080°10'0 0.0
2017-Aug-05 10:59N 26°05' W 080°10'0 0.0
2017-Aug-05 10:29N 26°05' W 080°10'0 0.0
2017-Aug-05 09:59N 26°05' W 080°10'0 0.0
2017-Aug-05 09:29N 26°05' W 080°10'0 0.0
2017-Aug-05 08:59N 26°05' W 080°10'0 0.0
2017-Aug-05 08:29N 26°05' W 080°10'0 0.0
2017-Aug-05 07:59N 26°05' W 080°10'0 0.0
2017-Aug-05 07:29N 26°05' W 080°10'0 0.0
2017-Aug-05 06:59N 26°05' W 080°10'0 0.0
2017-Aug-05 06:29N 26°05' W 080°10'0 0.0
2017-Aug-05 05:59N 26°05' W 080°10'0 0.0
2017-Aug-05 05:29N 26°05' W 080°10'0 0.0
2017-Aug-05 04:59N 26°05' W 080°10'0 0.0
2017-Aug-05 04:29N 26°05' W 080°10'0 0.0
2017-Aug-05 03:55N 26°05' W 080°10'0 0.0
2017-Aug-05 03:29N 26°05' W 080°10'0 0.0
2017-Aug-05 02:59N 26°05' W 080°10'0 0.0
2017-Aug-05 02:29N 26°05' W 080°10'0 0.0
2017-Aug-05 01:58N 26°05' W 080°10'0 0.0
2017-Aug-05 01:28N 26°05' W 080°10'0 0.0
2017-Aug-05 00:58N 26°05' W 080°10'0 0.0
2017-Aug-05 00:28N 26°05' W 080°10'0 0.0
2017-Aug-04 23:58N 26°05' W 080°10'0 0.0
2017-Aug-04 23:28N 26°05' W 080°10'0 0.0
2017-Aug-04 22:58N 26°05' W 080°10'0 0.0
2017-Aug-04 22:28N 26°05' W 080°10'0 0.0
2017-Aug-04 21:58N 26°05' W 080°10'0 0.0
2017-Aug-04 21:28N 26°05' W 080°10'0 0.0
2017-Aug-04 20:58N 26°05' W 080°10'0 0.0
2017-Aug-04 20:28N 26°05' W 080°10'0 0.0
2017-Aug-04 19:58N 26°05' W 080°10'0 0.0
2017-Aug-04 19:28N 26°05' W 080°10'0 0.0
2017-Aug-04 18:58N 26°05' W 080°10'0 0.0
2017-Aug-04 18:28N 26°05' W 080°10'0 0.0
2017-Aug-04 17:58N 26°05' W 080°10'0 0.0
2017-Aug-04 17:28N 26°05' W 080°10'0 0.0
2017-Aug-04 16:58N 26°05' W 080°10'0 0.0
2017-Aug-04 16:28N 26°05' W 080°10'0 0.0
2017-Aug-04 15:58N 26°05' W 080°10'0 0.0
2017-Aug-04 15:25N 26°05' W 080°10'0 0.0
2017-Aug-04 14:58N 26°05' W 080°10'0 0.0
2017-Aug-04 13:58N 26°05' W 080°10'0 0.0
2017-Aug-04 13:28N 26°05' W 080°10'0 0.0
2017-Aug-04 12:58N 26°05' W 080°10'0 0.0
2017-Aug-04 12:28N 26°05' W 080°10'0 0.0
2017-Aug-04 11:52N 26°05' W 080°10'0 0.0
2017-Aug-04 11:28N 26°05' W 080°10'0 0.0
2017-Aug-04 10:58N 26°05' W 080°10'0 0.0
2017-Aug-04 10:22N 26°05' W 080°10'0 0.0
2017-Aug-04 09:52N 26°05' W 080°10'0 0.0
2017-Aug-04 09:28N 26°05' W 080°10'0 0.0
2017-Aug-04 08:58N 26°05' W 080°10'0 0.0
2017-Aug-04 08:28N 26°05' W 080°10'0 0.0
2017-Aug-04 07:58N 26°05' W 080°10'0 0.0
2017-Aug-04 07:28N 26°05' W 080°10'0 0.0
2017-Aug-04 06:58N 26°05' W 080°10'0 0.0
2017-Aug-04 06:28N 26°05' W 080°10'0 0.0
2017-Aug-04 05:52N 26°05' W 080°10'0 0.0
2017-Aug-04 05:28N 26°05' W 080°10'0 0.0
2017-Aug-04 04:58N 26°05' W 080°10'0 0.0
2017-Aug-04 04:28N 26°05' W 080°10'0 0.0
2017-Aug-04 03:58N 26°05' W 080°10'0 0.0
2017-Aug-04 03:28N 26°05' W 080°10'0 0.0
2017-Aug-04 02:58N 26°05' W 080°10'0 0.0
2017-Aug-04 02:28N 26°05' W 080°10'0 0.0
2017-Aug-04 01:58N 26°05' W 080°10'0 0.0
2017-Aug-04 01:28N 26°05' W 080°10'0 0.0
2017-Aug-04 00:58N 26°05' W 080°10'0 0.0
2017-Aug-04 00:28N 26°05' W 080°10'0 0.0
2017-Aug-03 23:58N 26°05' W 080°10'0 0.0
2017-Aug-03 23:28N 26°05' W 080°10'0 0.0
2017-Aug-03 22:58N 26°05' W 080°10'0 0.0
2017-Aug-03 22:28N 26°05' W 080°10'0 0.0
2017-Aug-03 21:58N 26°05' W 080°10'0 0.0
2017-Aug-03 21:28N 26°05' W 080°10'0 0.0
2017-Aug-03 20:57N 26°05' W 080°10'0 0.0
2017-Aug-03 20:28N 26°05' W 080°10'0 0.0
2017-Aug-03 19:57N 26°05' W 080°10'0 0.0
2017-Aug-03 19:27N 26°05' W 080°10'0 0.0
2017-Aug-03 18:57N 26°05' W 080°10'0 0.0
2017-Aug-03 18:27N 26°05' W 080°10'0 0.0
2017-Aug-03 17:57N 26°05' W 080°10'0 0.0
2017-Aug-03 17:30N 26°05' W 080°10'0 0.0
2017-Aug-03 17:00N 26°05' W 080°10'0 0.0
2017-Aug-03 16:30N 26°05' W 080°10'0 0.0
2017-Aug-03 16:00N 26°05' W 080°10'0 0.0
2017-Aug-03 15:27N 26°05' W 080°10'0 0.0
2017-Aug-03 15:00N 26°05' W 080°10'0 0.0
2017-Aug-03 14:00N 26°05' W 080°10'0 0.0
2017-Aug-03 13:30N 26°05' W 080°10'0 0.0
2017-Aug-03 13:00N 26°05' W 080°10'0 0.0
2017-Aug-03 12:27N 26°05' W 080°10'0 0.0
2017-Aug-03 12:00N 26°05' W 080°10'0 0.0
2017-Aug-03 11:30N 26°05' W 080°10'0 0.0
2017-Aug-03 11:00N 26°05' W 080°10'0 0.0
2017-Aug-03 10:30N 26°05' W 080°10'0 0.0
2017-Aug-03 10:00N 26°05' W 080°10'0 0.0
2017-Aug-03 09:30N 26°05' W 080°10'0 0.0
2017-Aug-03 09:00N 26°05' W 080°10'0 0.0
2017-Aug-03 08:30N 26°05' W 080°10'0 0.0
2017-Aug-03 08:00N 26°05' W 080°10'0 0.0
2017-Aug-03 07:30N 26°05' W 080°10'0 0.0
2017-Aug-03 07:00N 26°05' W 080°10'0 0.0
2017-Aug-03 06:30N 26°05' W 080°10'0 0.0
2017-Aug-03 06:00N 26°05' W 080°10'0 0.0
2017-Aug-03 05:30N 26°05' W 080°10'0 0.0
2017-Aug-03 05:00N 26°05' W 080°10'0 0.0
2017-Aug-03 04:27N 26°05' W 080°10'0 0.0
2017-Aug-03 03:57N 26°05' W 080°10'0 0.0
2017-Aug-03 03:27N 26°05' W 080°10'0 0.0
2017-Aug-03 02:57N 26°05' W 080°10'0 0.0
2017-Aug-03 02:27N 26°05' W 080°10'0 0.0
2017-Aug-03 01:57N 26°05' W 080°10'0 0.0
2017-Aug-03 01:27N 26°05' W 080°10'0 0.0
2017-Aug-03 00:57N 26°05' W 080°10'0 0.0
2017-Aug-03 00:27N 26°05' W 080°10'0 0.0
2017-Aug-02 23:57N 26°05' W 080°10'0 0.0
2017-Aug-02 23:27N 26°05' W 080°10'0 0.0
2017-Aug-02 22:57N 26°05' W 080°10'0 0.0
2017-Aug-02 22:27N 26°05' W 080°10'0 0.0
2017-Aug-02 21:57N 26°05' W 080°10'0 0.0
2017-Aug-02 21:27N 26°05' W 080°10'0 0.0
2017-Aug-02 20:57N 26°05' W 080°10'0 0.0
2017-Aug-02 20:27N 26°05' W 080°10'0 0.0
2017-Aug-02 19:57N 26°05' W 080°10'0 0.0
2017-Aug-02 19:27N 26°05' W 080°10'0 0.0
2017-Aug-02 18:57N 26°05' W 080°10'0 0.0
2017-Aug-02 18:27N 26°05' W 080°10'0 0.0
2017-Aug-02 17:57N 26°05' W 080°10'0 0.0
2017-Aug-02 17:27N 26°05' W 080°10'0 0.0
2017-Aug-02 16:57N 26°05' W 080°10'0 0.0
2017-Aug-02 16:27N 26°05' W 080°10'0 0.0
2017-Aug-02 15:57N 26°05' W 080°10'0 0.0
2017-Aug-02 15:27N 26°05' W 080°10'0 0.0
2017-Aug-02 14:57N 26°05' W 080°10'0 0.0
2017-Aug-02 13:26N 26°05' W 080°10'0 0.0
2017-Aug-02 12:56N 26°05' W 080°10'0 0.0
2017-Aug-02 12:29N 26°05' W 080°10'0 0.0
2017-Aug-02 11:59N 26°05' W 080°10'0 0.0
2017-Aug-02 11:29N 26°05' W 080°10'0 0.0
2017-Aug-02 10:59N 26°05' W 080°10'0 0.0
2017-Aug-02 10:29N 26°05' W 080°10'0 0.0
2017-Aug-02 09:59N 26°05' W 080°10'0 0.0
2017-Aug-02 09:29N 26°05' W 080°10'0 0.0
2017-Aug-02 08:59N 26°05' W 080°10'0 0.0
2017-Aug-02 08:29N 26°05' W 080°10'0 0.0
2017-Aug-02 07:59N 26°05' W 080°10'0 0.0
2017-Aug-02 07:29N 26°05' W 080°10'0 0.0
2017-Aug-02 06:59N 26°05' W 080°10'0 0.0
2017-Aug-02 06:29N 26°05' W 080°10'0 0.0
2017-Aug-02 05:59N 26°05' W 080°10'0 0.0
2017-Aug-02 05:29N 26°05' W 080°10'0 0.0
2017-Aug-02 04:59N 26°05' W 080°10'0 0.0
2017-Aug-02 04:29N 26°05' W 080°10'0 0.0
2017-Aug-02 03:59N 26°05' W 080°10'0 0.0
2017-Aug-02 03:29N 26°05' W 080°10'0 0.0
2017-Aug-02 02:59N 26°05' W 080°10'0 0.0
2017-Aug-02 02:29N 26°05' W 080°10'0 0.0
2017-Aug-02 01:59N 26°05' W 080°10'  
Track history (hours):
 
Tides and Currents Weather Stations Pressure Air Temp Water Temp Dewpoint Dewpoint Depression Visibility Wind Speed Wind Dir Waves Ship Positions

My.unforgettable

Last reported at 2017-Aug-11 20:34 UTC. Time now 2017-Aug-21 17:28 UTC.
Position N 26°12' W 079°27'.
Warning: this ship's position is 9 days out of date.

Length 42 m; draft 1.9 m.

Type: Pleasure craft. MMSI: 319823000.

Date/timePositionNaut miles runAvg speedWind from/ knotsBaromVisibWave heightAir tempDewpointWater temp
2017-Aug-11 20:34N 26°12' W 079°27'1 7.2
2017-Aug-11 20:24N 26°13' W 079°28'3 7.0
2017-Aug-11 19:59N 26°13' W 079°32'3 7.2
2017-Aug-11 19:30N 26°14' W 079°36'4 8.0
2017-Aug-11 18:59N 26°13' W 079°40'4 8.5
2017-Aug-11 18:30N 26°12' W 079°44'4 8.6
2017-Aug-11 18:00N 26°10' W 079°49'4 8.6
2017-Aug-11 17:30N 26°09' W 079°54'4 8.9
2017-Aug-11 17:00N 26°08' W 079°58'4 8.8
2017-Aug-11 16:30N 26°06' W 080°03'4 7.6
2017-Aug-11 16:00N 26°06' W 080°07'0 0.6
2017-Aug-11 15:30N 26°06' W 080°07'0 0.0
2017-Aug-11 15:00N 26°06' W 080°07'0 0.0
2017-Aug-11 14:30N 26°06' W 080°07'0 0.0
2017-Aug-11 13:30N 26°06' W 080°07'0 0.0
2017-Aug-11 13:00N 26°06' W 080°07'0 0.0
2017-Aug-11 12:30N 26°06' W 080°07'0 0.0
2017-Aug-11 12:00N 26°06' W 080°07'0 0.0
2017-Aug-11 11:30N 26°06' W 080°07'0 0.0
2017-Aug-11 11:00N 26°06' W 080°07'0 0.0
2017-Aug-11 10:30N 26°06' W 080°07'0 0.0
2017-Aug-11 10:00N 26°06' W 080°07'0 0.0
2017-Aug-11 09:30N 26°06' W 080°07'0 0.0
2017-Aug-11 09:00N 26°06' W 080°07'0 0.0
2017-Aug-11 08:30N 26°06' W 080°07'0 0.0
2017-Aug-11 08:00N 26°06' W 080°07'0 0.0
2017-Aug-11 07:30N 26°06' W 080°07'0 0.0
2017-Aug-11 07:00N 26°06' W 080°07'0 0.0
2017-Aug-11 06:30N 26°06' W 080°07'0 0.0
2017-Aug-11 06:00N 26°06' W 080°07'0 0.0
2017-Aug-11 05:30N 26°06' W 080°07'0 0.0
2017-Aug-11 05:00N 26°06' W 080°07'0 0.0
2017-Aug-11 04:30N 26°06' W 080°07'0 0.0
2017-Aug-11 04:00N 26°06' W 080°07'0 0.0
2017-Aug-11 03:30N 26°06' W 080°07'0 0.0
2017-Aug-11 03:00N 26°06' W 080°07'0 0.0
2017-Aug-11 02:30N 26°06' W 080°07'0 0.0
2017-Aug-11 02:00N 26°06' W 080°07'0 0.0
2017-Aug-11 01:30N 26°06' W 080°07'0 0.0
2017-Aug-11 01:00N 26°06' W 080°07'0 0.0
2017-Aug-11 00:30N 26°06' W 080°07'0 0.0
2017-Aug-11 00:00N 26°06' W 080°07'0 0.0
2017-Aug-10 23:30N 26°06' W 080°07'0 0.0
2017-Aug-10 23:00N 26°06' W 080°07'0 0.0
2017-Aug-10 22:30N 26°06' W 080°07'0 0.0
2017-Aug-10 22:00N 26°06' W 080°07'0 0.0
2017-Aug-10 21:30N 26°06' W 080°07'0 0.0
2017-Aug-10 21:00N 26°06' W 080°07'0 0.0
2017-Aug-10 20:30N 26°06' W 080°07'0 0.0
2017-Aug-10 20:00N 26°06' W 080°07'0 0.0
2017-Aug-10 19:30N 26°06' W 080°07'0 0.0
2017-Aug-10 19:00N 26°06' W 080°07'0 0.4
2017-Aug-10 18:30N 26°06' W 080°07'2 3.6
2017-Aug-10 18:01N 26°05' W 080°05'2 3.8
2017-Aug-10 17:30N 26°06' W 080°07'2 3.7
2017-Aug-10 17:00N 26°07' W 080°09'2 3.2
2017-Aug-10 16:30N 26°06' W 080°10'1 1.3
2017-Aug-10 15:59N 26°05' W 080°10'0 0.0
2017-Aug-10 15:29N 26°05' W 080°10'0 0.0
2017-Aug-10 14:59N 26°05' W 080°10'0 0.0
2017-Aug-10 14:29N 26°05' W 080°10'0 0.0
2017-Aug-10 13:59N 26°05' W 080°10'0 0.0
2017-Aug-10 13:29N 26°05' W 080°10'0 0.0
2017-Aug-10 12:59N 26°05' W 080°10'0 0.0
2017-Aug-10 12:29N 26°05' W 080°10'0 0.0
2017-Aug-10 11:59N 26°05' W 080°10'0 0.0
2017-Aug-10 11:29N 26°05' W 080°10'0 0.0
2017-Aug-10 10:59N 26°05' W 080°10'0 0.0
2017-Aug-10 10:29N 26°05' W 080°10'0 0.0
2017-Aug-10 09:59N 26°05' W 080°10'0 0.0
2017-Aug-10 09:29N 26°05' W 080°10'0 0.0
2017-Aug-10 08:59N 26°05' W 080°10'0 0.0
2017-Aug-10 08:29N 26°05' W 080°10'0 0.0
2017-Aug-10 07:59N 26°05' W 080°10'0 0.0
2017-Aug-10 07:29N 26°05' W 080°10'0 0.0
2017-Aug-10 06:59N 26°05' W 080°10'0 0.0
2017-Aug-10 06:29N 26°05' W 080°10'0 0.0
2017-Aug-10 05:59N 26°05' W 080°10'0 0.0
2017-Aug-10 05:29N 26°05' W 080°10'0 0.0
2017-Aug-10 04:59N 26°05' W 080°10'0 0.0
2017-Aug-10 04:29N 26°05' W 080°10'0 0.0
2017-Aug-10 03:59N 26°05' W 080°10'0 0.0
2017-Aug-10 03:29N 26°05' W 080°10'0 0.0
2017-Aug-10 02:59N 26°05' W 080°10'0 0.0
2017-Aug-10 02:29N 26°05' W 080°10'0 0.0
2017-Aug-10 01:59N 26°05' W 080°10'0 0.0
2017-Aug-10 01:29N 26°05' W 080°10'0 0.0
2017-Aug-10 00:59N 26°05' W 080°10'0 0.0
2017-Aug-10 00:29N 26°05' W 080°10'0 0.0
2017-Aug-09 23:59N 26°05' W 080°10'0 0.0
2017-Aug-09 23:29N 26°05' W 080°10'0 0.0
2017-Aug-09 22:59N 26°05' W 080°10'0 0.0
2017-Aug-09 22:29N 26°05' W 080°10'0 0.0
2017-Aug-09 21:59N 26°05' W 080°10'0 0.0
2017-Aug-09 21:29N 26°05' W 080°10'0 0.0
2017-Aug-09 20:59N 26°05' W 080°10'0 0.0
2017-Aug-09 20:29N 26°05' W 080°10'0 0.0
2017-Aug-09 19:59N 26°05' W 080°10'0 0.0
2017-Aug-09 19:29N 26°05' W 080°10'0 0.0
2017-Aug-09 18:59N 26°05' W 080°10'0 0.0
2017-Aug-09 18:29N 26°05' W 080°10'0 0.0
2017-Aug-09 17:59N 26°05' W 080°10'0 0.0
2017-Aug-09 17:29N 26°05' W 080°10'0 0.0
2017-Aug-09 16:59N 26°05' W 080°10'0 0.0
2017-Aug-09 16:29N 26°05' W 080°10'0 0.0
2017-Aug-09 15:59N 26°05' W 080°10'0 0.0
2017-Aug-09 15:29N 26°05' W 080°10'0 0.0
2017-Aug-09 14:59N 26°05' W 080°10'0 0.0
2017-Aug-09 14:29N 26°05' W 080°10'0 0.0
2017-Aug-09 13:59N 26°05' W 080°10'0 0.0
2017-Aug-09 13:29N 26°05' W 080°10'0 0.0
2017-Aug-09 12:59N 26°05' W 080°10'0 0.0
2017-Aug-09 12:28N 26°05' W 080°10'0 0.0
2017-Aug-09 11:58N 26°05' W 080°10'0 0.0
2017-Aug-09 11:28N 26°05' W 080°10'0 0.0
2017-Aug-09 10:59N 26°05' W 080°10'0 0.0
2017-Aug-09 10:28N 26°05' W 080°10'0 0.0
2017-Aug-09 09:58N 26°05' W 080°10'0 0.0
2017-Aug-09 09:28N 26°05' W 080°10'0 0.0
2017-Aug-09 08:58N 26°05' W 080°10'0 0.0
2017-Aug-09 08:28N 26°05' W 080°10'0 0.0
2017-Aug-09 07:58N 26°05' W 080°10'0 0.0
2017-Aug-09 07:28N 26°05' W 080°10'0 0.0
2017-Aug-09 06:58N 26°05' W 080°10'0 0.0
2017-Aug-09 06:28N 26°05' W 080°10'0 0.0
2017-Aug-09 05:58N 26°05' W 080°10'0 0.0
2017-Aug-09 05:28N 26°05' W 080°10'0 0.0
2017-Aug-09 04:58N 26°05' W 080°10'0 0.0
2017-Aug-09 04:28N 26°05' W 080°10'0 0.0
2017-Aug-09 03:58N 26°05' W 080°10'0 0.0
2017-Aug-09 03:28N 26°05' W 080°10'0 0.0
2017-Aug-09 02:58N 26°05' W 080°10'0 0.0
2017-Aug-09 02:28N 26°05' W 080°10'0 0.0
2017-Aug-09 01:58N 26°05' W 080°10'0 0.0
2017-Aug-09 01:28N 26°05' W 080°10'0 0.0
2017-Aug-09 00:58N 26°05' W 080°10'0 0.0
2017-Aug-09 00:28N 26°05' W 080°10'0 0.0
2017-Aug-08 23:58N 26°05' W 080°10'0 0.0
2017-Aug-08 23:28N 26°05' W 080°10'0 0.0
2017-Aug-08 22:58N 26°05' W 080°10'0 0.0
2017-Aug-08 22:28N 26°05' W 080°10'0 0.0
2017-Aug-08 21:58N 26°05' W 080°10'0 0.0
2017-Aug-08 21:28N 26°05' W 080°10'0 0.0
2017-Aug-08 20:58N 26°05' W 080°10'0 0.0
2017-Aug-08 20:28N 26°05' W 080°10'0 0.0
2017-Aug-08 19:58N 26°05' W 080°10'0 0.0
2017-Aug-08 19:28N 26°05' W 080°10'0 0.0
2017-Aug-08 18:55N 26°05' W 080°10'0 0.0
2017-Aug-08 18:25N 26°05' W 080°10'0 0.0
2017-Aug-08 17:58N 26°05' W 080°10'0 0.0
2017-Aug-08 17:28N 26°05' W 080°10'0 0.0
2017-Aug-08 16:58N 26°05' W 080°10'0 0.0
2017-Aug-08 16:28N 26°05' W 080°10'0 0.0
2017-Aug-08 15:55N 26°05' W 080°10'0 0.0
2017-Aug-08 15:28N 26°05' W 080°10'0 0.0
2017-Aug-08 14:58N 26°05' W 080°10'0 0.0
2017-Aug-08 14:28N 26°05' W 080°10'0 0.0
2017-Aug-08 13:58N 26°05' W 080°10'0 0.0
2017-Aug-08 13:28N 26°05' W 080°10'0 0.0
2017-Aug-08 12:58N 26°05' W 080°10'0 0.0
2017-Aug-08 12:28N 26°05' W 080°10'0 0.0
2017-Aug-08 11:58N 26°05' W 080°10'0 0.0
2017-Aug-08 11:28N 26°05' W 080°10'0 0.0
2017-Aug-08 10:58N 26°05' W 080°10'0 0.0
2017-Aug-08 10:28N 26°05' W 080°10'0 0.0
2017-Aug-08 09:58N 26°05' W 080°10'0 0.0
2017-Aug-08 09:28N 26°05' W 080°10'0 0.0
2017-Aug-08 08:58N 26°05' W 080°10'0 0.0
2017-Aug-08 08:28N 26°05' W 080°10'0 0.0
2017-Aug-08 07:58N 26°05' W 080°10'0 0.0
2017-Aug-08 07:28N 26°05' W 080°10'0 0.0
2017-Aug-08 06:58N 26°05' W 080°10'0 0.0
2017-Aug-08 06:28N 26°05' W 080°10'0 0.0
2017-Aug-08 05:58N 26°05' W 080°10'0 0.0
2017-Aug-08 05:28N 26°05' W 080°10'0 0.0
2017-Aug-08 04:58N 26°05' W 080°10'0 0.0
2017-Aug-08 04:28N 26°05' W 080°10'0 0.0
2017-Aug-08 03:58N 26°05' W 080°10'0 0.0
2017-Aug-08 03:28N 26°05' W 080°10'0 0.0
2017-Aug-08 02:58N 26°05' W 080°10'0 0.0
2017-Aug-08 02:28N 26°05' W 080°10'0 0.0
2017-Aug-08 01:58N 26°05' W 080°10'0 0.0
2017-Aug-08 01:25N 26°05' W 080°10'0 0.0
2017-Aug-08 00:57N 26°05' W 080°10'0 0.0
2017-Aug-08 00:27N 26°05' W 080°10'0 0.0
2017-Aug-07 23:57N 26°05' W 080°10'0 0.0
2017-Aug-07 23:27N 26°05' W 080°10'0 0.0
2017-Aug-07 22:57N 26°05' W 080°10'0 0.0
2017-Aug-07 22:27N 26°05' W 080°10'0 0.0
2017-Aug-07 21:57N 26°05' W 080°10'0 0.0
2017-Aug-07 21:27N 26°05' W 080°10'0 0.0
2017-Aug-07 20:57N 26°05' W 080°10'0 0.0
2017-Aug-07 20:27N 26°05' W 080°10'0 0.0
2017-Aug-07 19:57N 26°05' W 080°10'0 0.0
2017-Aug-07 19:27N 26°05' W 080°10'0 0.0
2017-Aug-07 19:01N 26°05' W 080°10'0 0.0
2017-Aug-07 18:30N 26°05' W 080°10'0 0.0
2017-Aug-07 17:57N 26°05' W 080°10'0 0.0
2017-Aug-07 17:31N 26°05' W 080°10'0 0.0
2017-Aug-07 17:00N 26°05' W 080°10'0 0.0
2017-Aug-07 16:30N 26°05' W 080°10'0 0.0
2017-Aug-07 16:00N 26°05' W 080°10'0 0.0
2017-Aug-07 15:30N 26°05' W 080°10'0 0.0
2017-Aug-07 15:00N 26°05' W 080°10'0 0.0
2017-Aug-07 14:30N 26°05' W 080°10'0 0.0
2017-Aug-07 14:00N 26°05' W 080°10'0 0.0
2017-Aug-07 13:27N 26°05' W 080°10'0 0.0
2017-Aug-07 13:00N 26°05' W 080°10'0 0.0
2017-Aug-07 12:30N 26°05' W 080°10'0 0.0
2017-Aug-07 12:00N 26°05' W 080°10'0 0.0
2017-Aug-07 11:30N 26°05' W 080°10'0 0.0
2017-Aug-07 11:00N 26°05' W 080°10'0 0.0
2017-Aug-07 10:30N 26°05' W 080°10'0 0.0
2017-Aug-07 10:00N 26°05' W 080°10'0 0.0
2017-Aug-07 09:30N 26°05' W 080°10'0 0.0
2017-Aug-07 09:00N 26°05' W 080°10'0 0.0
2017-Aug-07 08:30N 26°05' W 080°10'0 0.0
2017-Aug-07 08:00N 26°05' W 080°10'0 0.0
2017-Aug-07 07:30N 26°05' W 080°10'0 0.0
2017-Aug-07 07:00N 26°05' W 080°10'0 0.0
2017-Aug-07 06:30N 26°05' W 080°10'0 0.0
2017-Aug-07 06:00N 26°05' W 080°10'0 0.0
2017-Aug-07 05:30N 26°05' W 080°10'0 0.0
2017-Aug-07 05:00N 26°05' W 080°10'0 0.0
2017-Aug-07 04:30N 26°05' W 080°10'0 0.0
2017-Aug-07 04:00N 26°05' W 080°10'0 0.0
2017-Aug-07 03:30N 26°05' W 080°10'0 0.0
2017-Aug-07 03:00N 26°05' W 080°10'0 0.0
2017-Aug-07 02:30N 26°05' W 080°10'0 0.0
2017-Aug-07 02:00N 26°05' W 080°10'0 0.0
2017-Aug-07 01:30N 26°05' W 080°10'0 0.0
2017-Aug-07 01:00N 26°05' W 080°10'0 0.0
2017-Aug-07 00:27N 26°05' W 080°10'0 0.0
2017-Aug-06 23:57N 26°05' W 080°10'0 0.0
2017-Aug-06 23:30N 26°05' W 080°10'0 0.0
2017-Aug-06 23:00N 26°05' W 080°10'0 0.0
2017-Aug-06 22:30N 26°05' W 080°10'0 0.0
2017-Aug-06 22:00N 26°05' W 080°10'0 0.0
2017-Aug-06 21:30N 26°05' W 080°10'0 0.0
2017-Aug-06 21:00N 26°05' W 080°10'0 0.0
2017-Aug-06 20:30N 26°05' W 080°10'0 0.0
2017-Aug-06 20:00N 26°05' W 080°10'0 0.0
2017-Aug-06 19:30N 26°05' W 080°10'0 0.0
2017-Aug-06 19:00N 26°05' W 080°10'0 0.0
2017-Aug-06 18:27N 26°05' W 080°10'0 0.0
2017-Aug-06 18:00N 26°05' W 080°10'0 0.0
2017-Aug-06 17:30N 26°05' W 080°10'0 0.0
2017-Aug-06 17:00N 26°05' W 080°10'0 0.0
2017-Aug-06 16:30N 26°05' W 080°10'0 0.0
2017-Aug-06 16:00N 26°05' W 080°10'0 0.0
2017-Aug-06 15:30N 26°05' W 080°10'0 0.0
2017-Aug-06 15:00N 26°05' W 080°10'0 0.0
2017-Aug-06 14:30N 26°05' W 080°10'0 0.0
2017-Aug-06 14:00N 26°05' W 080°10'0 0.0
2017-Aug-06 13:30N 26°05' W 080°10'0 0.0
2017-Aug-06 13:00N 26°05' W 080°10'0 0.0
2017-Aug-06 12:26N 26°05' W 080°10'0 0.0
2017-Aug-06 12:00N 26°05' W 080°10'0 0.0
2017-Aug-06 11:30N 26°05' W 080°10'0 0.0
2017-Aug-06 10:59N 26°05' W 080°10'0 0.0
2017-Aug-06 10:30N 26°05' W 080°10'0 0.0
2017-Aug-06 09:59N 26°05' W 080°10'0 0.0
2017-Aug-06 09:29N 26°05' W 080°10'0 0.0
2017-Aug-06 08:59N 26°05' W 080°10'0 0.0
2017-Aug-06 08:29N 26°05' W 080°10'0 0.0
2017-Aug-06 07:59N 26°05' W 080°10'0 0.0
2017-Aug-06 07:29N 26°05' W 080°10'0 0.0
2017-Aug-06 06:59N 26°05' W 080°10'0 0.0
2017-Aug-06 06:29N 26°05' W 080°10'0 0.0
2017-Aug-06 05:59N 26°05' W 080°10'0 0.0
2017-Aug-06 05:29N 26°05' W 080°10'0 0.0
2017-Aug-06 04:59N 26°05' W 080°10'0 0.0
2017-Aug-06 04:29N 26°05' W 080°10'0 0.0
2017-Aug-06 03:59N 26°05' W 080°10'0 0.0
2017-Aug-06 03:26N 26°05' W 080°10'0 0.0
2017-Aug-06 02:59N 26°05' W 080°10'0 0.0
2017-Aug-06 02:29N 26°05' W 080°10'0 0.0
2017-Aug-06 01:56N 26°05' W 080°10'0 0.0
2017-Aug-06 01:29N 26°05' W 080°10'0 0.0
2017-Aug-06 00:59N 26°05' W 080°10'0 0.0
2017-Aug-06 00:29N 26°05' W 080°10'0 0.0
2017-Aug-05 23:59N 26°05' W 080°10'0 0.0
2017-Aug-05 23:29N 26°05' W 080°10'0 0.0
2017-Aug-05 22:59N 26°05' W 080°10'0 0.0
2017-Aug-05 22:29N 26°05' W 080°10'0 0.0
2017-Aug-05 21:59N 26°05' W 080°10'0 0.0
2017-Aug-05 21:29N 26°05' W 080°10'0 0.0
2017-Aug-05 20:59N 26°05' W 080°10'0 0.0
2017-Aug-05 20:29N 26°05' W 080°10'0 0.0
2017-Aug-05 19:59N 26°05' W 080°10'0 0.0
2017-Aug-05 19:29N 26°05' W 080°10'0 0.0
2017-Aug-05 18:59N 26°05' W 080°10'0 0.0
2017-Aug-05 18:29N 26°05' W 080°10'0 0.0
2017-Aug-05 17:59N 26°05' W 080°10'0 0.0
2017-Aug-05 17:23N 26°05' W 080°10'0 0.0
2017-Aug-05 16:59N 26°05' W 080°10'0 0.0
2017-Aug-05 16:29N 26°05' W 080°10'0 0.0
2017-Aug-05 15:59N 26°05' W 080°10'0 0.0
2017-Aug-05 15:29N 26°05' W 080°10'0 0.0
2017-Aug-05 14:59N 26°05' W 080°10'0 0.0
2017-Aug-05 14:29N 26°05' W 080°10'0 0.0
2017-Aug-05 13:59N 26°05' W 080°10'0 0.0
2017-Aug-05 13:29N 26°05' W 080°10'0 0.0
2017-Aug-05 12:59N 26°05' W 080°10'0 0.0
2017-Aug-05 12:29N 26°05' W 080°10'0 0.0
2017-Aug-05 11:59N 26°05' W 080°10'0 0.0
2017-Aug-05 11:29N 26°05' W 080°10'0 0.0
2017-Aug-05 10:59N 26°05' W 080°10'0 0.0
2017-Aug-05 10:29N 26°05' W 080°10'0 0.0
2017-Aug-05 09:59N 26°05' W 080°10'0 0.0
2017-Aug-05 09:29N 26°05' W 080°10'0 0.0
2017-Aug-05 08:59N 26°05' W 080°10'0 0.0
2017-Aug-05 08:29N 26°05' W 080°10'0 0.0
2017-Aug-05 07:59N 26°05' W 080°10'0 0.0
2017-Aug-05 07:29N 26°05' W 080°10'0 0.0
2017-Aug-05 06:59N 26°05' W 080°10'0 0.0
2017-Aug-05 06:29N 26°05' W 080°10'0 0.0
2017-Aug-05 05:59N 26°05' W 080°10'0 0.0
2017-Aug-05 05:29N 26°05' W 080°10'0 0.0
2017-Aug-05 04:59N 26°05' W 080°10'0 0.0
2017-Aug-05 04:29N 26°05' W 080°10'0 0.0
2017-Aug-05 03:55N 26°05' W 080°10'0 0.0
2017-Aug-05 03:29N 26°05' W 080°10'0 0.0
2017-Aug-05 02:59N 26°05' W 080°10'0 0.0
2017-Aug-05 02:29N 26°05' W 080°10'0 0.0
2017-Aug-05 01:58N 26°05' W 080°10'0 0.0
2017-Aug-05 01:28N 26°05' W 080°10'0 0.0
2017-Aug-05 00:58N 26°05' W 080°10'0 0.0
2017-Aug-05 00:28N 26°05' W 080°10'0 0.0
2017-Aug-04 23:58N 26°05' W 080°10'0 0.0
2017-Aug-04 23:28N 26°05' W 080°10'0 0.0
2017-Aug-04 22:58N 26°05' W 080°10'0 0.0
2017-Aug-04 22:28N 26°05' W 080°10'0 0.0
2017-Aug-04 21:58N 26°05' W 080°10'0 0.0
2017-Aug-04 21:28N 26°05' W 080°10'0 0.0
2017-Aug-04 20:58N 26°05' W 080°10'0 0.0
2017-Aug-04 20:28N 26°05' W 080°10'0 0.0
2017-Aug-04 19:58N 26°05' W 080°10'0 0.0
2017-Aug-04 19:28N 26°05' W 080°10'0 0.0
2017-Aug-04 18:58N 26°05' W 080°10'0 0.0
2017-Aug-04 18:28N 26°05' W 080°10'0 0.0
2017-Aug-04 17:58N 26°05' W 080°10'0 0.0
2017-Aug-04 17:28N 26°05' W 080°10'0 0.0
2017-Aug-04 16:58N 26°05' W 080°10'0 0.0
2017-Aug-04 16:28N 26°05' W 080°10'0 0.0
2017-Aug-04 15:58N 26°05' W 080°10'0 0.0
2017-Aug-04 15:25N 26°05' W 080°10'0 0.0
2017-Aug-04 14:58N 26°05' W 080°10'0 0.0
2017-Aug-04 13:58N 26°05' W 080°10'0 0.0
2017-Aug-04 13:28N 26°05' W 080°10'0 0.0
2017-Aug-04 12:58N 26°05' W 080°10'0 0.0
2017-Aug-04 12:28N 26°05' W 080°10'0 0.0
2017-Aug-04 11:52N 26°05' W 080°10'0 0.0
2017-Aug-04 11:28N 26°05' W 080°10'0 0.0
2017-Aug-04 10:58N 26°05' W 080°10'0 0.0
2017-Aug-04 10:22N 26°05' W 080°10'0 0.0
2017-Aug-04 09:52N 26°05' W 080°10'0 0.0
2017-Aug-04 09:28N 26°05' W 080°10'0 0.0
2017-Aug-04 08:58N 26°05' W 080°10'0 0.0
2017-Aug-04 08:28N 26°05' W 080°10'0 0.0
2017-Aug-04 07:58N 26°05' W 080°10'0 0.0
2017-Aug-04 07:28N 26°05' W 080°10'0 0.0
2017-Aug-04 06:58N 26°05' W 080°10'0 0.0
2017-Aug-04 06:28N 26°05' W 080°10'0 0.0
2017-Aug-04 05:52N 26°05' W 080°10'0 0.0
2017-Aug-04 05:28N 26°05' W 080°10'0 0.0
2017-Aug-04 04:58N 26°05' W 080°10'0 0.0
2017-Aug-04 04:28N 26°05' W 080°10'0 0.0
2017-Aug-04 03:58N 26°05' W 080°10'0 0.0
2017-Aug-04 03:28N 26°05' W 080°10'0 0.0
2017-Aug-04 02:58N 26°05' W 080°10'0 0.0
2017-Aug-04 02:28N 26°05' W 080°10'0 0.0
2017-Aug-04 01:58N 26°05' W 080°10'0 0.0
2017-Aug-04 01:28N 26°05' W 080°10'0 0.0
2017-Aug-04 00:58N 26°05' W 080°10'0 0.0
2017-Aug-04 00:28N 26°05' W 080°10'0 0.0
2017-Aug-03 23:58N 26°05' W 080°10'0 0.0
2017-Aug-03 23:28N 26°05' W 080°10'0 0.0
2017-Aug-03 22:58N 26°05' W 080°10'0 0.0
2017-Aug-03 22:28N 26°05' W 080°10'0 0.0
2017-Aug-03 21:58N 26°05' W 080°10'0 0.0
2017-Aug-03 21:28N 26°05' W 080°10'0 0.0
2017-Aug-03 20:57N 26°05' W 080°10'0 0.0
2017-Aug-03 20:28N 26°05' W 080°10'0 0.0
2017-Aug-03 19:57N 26°05' W 080°10'0 0.0
2017-Aug-03 19:27N 26°05' W 080°10'0 0.0
2017-Aug-03 18:57N 26°05' W 080°10'0 0.0
2017-Aug-03 18:27N 26°05' W 080°10'0 0.0
2017-Aug-03 17:57N 26°05' W 080°10'0 0.0
2017-Aug-03 17:30N 26°05' W 080°10'0 0.0
2017-Aug-03 17:00N 26°05' W 080°10'0 0.0
2017-Aug-03 16:30N 26°05' W 080°10'0 0.0
2017-Aug-03 16:00N 26°05' W 080°10'0 0.0
2017-Aug-03 15:27N 26°05' W 080°10'0 0.0
2017-Aug-03 15:00N 26°05' W 080°10'0 0.0
2017-Aug-03 14:00N 26°05' W 080°10'0 0.0
2017-Aug-03 13:30N 26°05' W 080°10'0 0.0
2017-Aug-03 13:00N 26°05' W 080°10'0 0.0
2017-Aug-03 12:27N 26°05' W 080°10'0 0.0
2017-Aug-03 12:00N 26°05' W 080°10'0 0.0
2017-Aug-03 11:30N 26°05' W 080°10'0 0.0
2017-Aug-03 11:00N 26°05' W 080°10'0 0.0
2017-Aug-03 10:30N 26°05' W 080°10'0 0.0
2017-Aug-03 10:00N 26°05' W 080°10'0 0.0
2017-Aug-03 09:30N 26°05' W 080°10'0 0.0
2017-Aug-03 09:00N 26°05' W 080°10'0 0.0
2017-Aug-03 08:30N 26°05' W 080°10'0 0.0
2017-Aug-03 08:00N 26°05' W 080°10'0 0.0
2017-Aug-03 07:30N 26°05' W 080°10'0 0.0
2017-Aug-03 07:00N 26°05' W 080°10'0 0.0
2017-Aug-03 06:30N 26°05' W 080°10'0 0.0
2017-Aug-03 06:00N 26°05' W 080°10'0 0.0
2017-Aug-03 05:30N 26°05' W 080°10'0 0.0
2017-Aug-03 05:00N 26°05' W 080°10'0 0.0
2017-Aug-03 04:27N 26°05' W 080°10'0 0.0
2017-Aug-03 03:57N 26°05' W 080°10'0 0.0
2017-Aug-03 03:27N 26°05' W 080°10'0 0.0
2017-Aug-03 02:57N 26°05' W 080°10'0 0.0
2017-Aug-03 02:27N 26°05' W 080°10'0 0.0
2017-Aug-03 01:57N 26°05' W 080°10'0 0.0
2017-Aug-03 01:27N 26°05' W 080°10'0 0.0
2017-Aug-03 00:57N 26°05' W 080°10'0 0.0
2017-Aug-03 00:27N 26°05' W 080°10'0 0.0
2017-Aug-02 23:57N 26°05' W 080°10'0 0.0
2017-Aug-02 23:27N 26°05' W 080°10'0 0.0
2017-Aug-02 22:57N 26°05' W 080°10'0 0.0
2017-Aug-02 22:27N 26°05' W 080°10'0 0.0
2017-Aug-02 21:57N 26°05' W 080°10'0 0.0
2017-Aug-02 21:27N 26°05' W 080°10'0 0.0
2017-Aug-02 20:57N 26°05' W 080°10'0 0.0
2017-Aug-02 20:27N 26°05' W 080°10'0 0.0
2017-Aug-02 19:57N 26°05' W 080°10'0 0.0
2017-Aug-02 19:27N 26°05' W 080°10'0 0.0
2017-Aug-02 18:57N 26°05' W 080°10'0 0.0
2017-Aug-02 18:27N 26°05' W 080°10'0 0.0
2017-Aug-02 17:57N 26°05' W 080°10'0 0.0
2017-Aug-02 17:27N 26°05' W 080°10'0 0.0
2017-Aug-02 16:57N 26°05' W 080°10'0 0.0
2017-Aug-02 16:27N 26°05' W 080°10'0 0.0
2017-Aug-02 15:57N 26°05' W 080°10'0 0.0
2017-Aug-02 15:27N 26°05' W 080°10'0 0.0
2017-Aug-02 14:57N 26°05' W 080°10'0 0.0
2017-Aug-02 13:26N 26°05' W 080°10'0 0.0
2017-Aug-02 12:56N 26°05' W 080°10'0 0.0
2017-Aug-02 12:29N 26°05' W 080°10'0 0.0
2017-Aug-02 11:59N 26°05' W 080°10'0 0.0
2017-Aug-02 11:29N 26°05' W 080°10'0 0.0
2017-Aug-02 10:59N 26°05' W 080°10'0 0.0
2017-Aug-02 10:29N 26°05' W 080°10'0 0.0
2017-Aug-02 09:59N 26°05' W 080°10'0 0.0
2017-Aug-02 09:29N 26°05' W 080°10'0 0.0
2017-Aug-02 08:59N 26°05' W 080°10'0 0.0
2017-Aug-02 08:29N 26°05' W 080°10'0 0.0
2017-Aug-02 07:59N 26°05' W 080°10'0 0.0
2017-Aug-02 07:29N 26°05' W 080°10'0 0.0
2017-Aug-02 06:59N 26°05' W 080°10'0 0.0
2017-Aug-02 06:29N 26°05' W 080°10'0 0.0
2017-Aug-02 05:59N 26°05' W 080°10'0 0.0
2017-Aug-02 05:29N 26°05' W 080°10'0 0.0
2017-Aug-02 04:59N 26°05' W 080°10'0 0.0
2017-Aug-02 04:29N 26°05' W 080°10'0 0.0
2017-Aug-02 03:59N 26°05' W 080°10'0 0.0
2017-Aug-02 03:29N 26°05' W 080°10'0 0.0
2017-Aug-02 02:59N 26°05' W 080°10'0 0.0
2017-Aug-02 02:29N 26°05' W 080°10'0 0.0
2017-Aug-02 01:59N 26°05' W 080°10'  

Dump ship's entire track history